Ashland — V7FG8 — position and weather

sailwx.info

Track history (hours):
 
Tides and Currents Weather Stations Pressure Air Temp Water Temp Dewpoint Dewpoint Depression Visibility Wind Speed Wind Dir Waves Ship Positions

Ashland

Last reported at 2018-Jan-25 21:22 UTC. Time now 2018-Feb-18 22:22 UTC.
Position N 05°15' E 001°32'.
Warning: this ship's position is 24 days out of date.

; draft 7.5 m.

Type: Tanker. MMSI: 538005597.

Date/timePositionNaut miles runAvg speedWind from/ knotsBaromVisibWave heightAir tempDewpointWater temp
2018-Jan-25 21:22N 05°15' E 001°32'513.6
2018-Jan-25 20:59N 05°19' E 001°31'713.6
2018-Jan-25 20:30N 05°26' E 001°28'813.4
2018-Jan-25 19:55N 05°33' E 001°26'613.2
2018-Jan-25 19:30N 05°38' E 001°24'713.2
2018-Jan-25 19:00N 05°44' E 001°22'713.1
2018-Jan-25 18:30N 05°50' E 001°19'713.1
2018-Jan-25 18:00N 05°57' E 001°18'5 9.0
2018-Jan-25 17:30N 06°01' E 001°15'0 0.0
2018-Jan-25 16:39N 06°01' E 001°15'0 0.0
2018-Jan-25 02:39N 06°01' E 001°15'0 0.0
2018-Jan-25 02:15N 06°01' E 001°15'0 0.0
2018-Jan-25 01:57N 06°01' E 001°15'0 0.0
2018-Jan-25 01:18N 06°01' E 001°15'0 0.0
2018-Jan-25 00:57N 06°01' E 001°15'0 0.0
2018-Jan-25 00:30N 06°01' E 001°15'0 0.0
2018-Jan-24 23:57N 06°01' E 001°15'0 0.1
2018-Jan-24 23:29N 06°01' E 001°15'2 3.3
2018-Jan-24 23:00N 05°60' E 001°17'5 9.9
2018-Jan-24 22:30N 05°55' E 001°19'612.8
2018-Jan-24 22:00N 05°54' E 001°26'713.8
2018-Jan-24 21:30N 05°54' E 001°32'1213.8
2018-Jan-24 20:37N 05°54' E 001°45'414.0
2018-Jan-24 20:19N 05°54' E 001°49'414.1
2018-Jan-24 20:00N 05°54' E 001°53'93 3.6
2018-Jan-23 17:55N 06°19' E 003°23'6 0.4
2018-Jan-23 03:41N 06°14' E 003°25'213.4
2018-Jan-23 03:30N 06°12' E 003°26'713.9
2018-Jan-23 02:59N 06°05' E 003°29'714.0
2018-Jan-23 02:30N 05°59' E 003°31'714.1
2018-Jan-23 02:00N 05°52' E 003°33'814.0
2018-Jan-23 01:27N 05°45' E 003°36'713.9
2018-Jan-23 00:55N 05°38' E 003°38'613.8
2018-Jan-23 00:30N 05°32' E 003°40'713.7
2018-Jan-23 00:00N 05°26' E 003°43'  
Track history (hours):
 
Tides and Currents Weather Stations Pressure Air Temp Water Temp Dewpoint Dewpoint Depression Visibility Wind Speed Wind Dir Waves Ship Positions

Ashland

Last reported at 2018-Jan-25 21:22 UTC. Time now 2018-Feb-18 22:23 UTC.
Position N 05°15' E 001°32'.
Warning: this ship's position is 24 days out of date.

; draft 7.5 m.

Type: Tanker. MMSI: 538005597.

Date/timePositionNaut miles runAvg speedWind from/ knotsBaromVisibWave heightAir tempDewpointWater temp
2018-Jan-25 21:22N 05°15' E 001°32'513.6
2018-Jan-25 20:59N 05°19' E 001°31'713.6
2018-Jan-25 20:30N 05°26' E 001°28'813.4
2018-Jan-25 19:55N 05°33' E 001°26'613.2
2018-Jan-25 19:30N 05°38' E 001°24'713.2
2018-Jan-25 19:00N 05°44' E 001°22'713.1
2018-Jan-25 18:30N 05°50' E 001°19'713.1
2018-Jan-25 18:00N 05°57' E 001°18'5 9.0
2018-Jan-25 17:30N 06°01' E 001°15'0 0.0
2018-Jan-25 16:39N 06°01' E 001°15'0 0.0
2018-Jan-25 02:39N 06°01' E 001°15'0 0.0
2018-Jan-25 02:15N 06°01' E 001°15'0 0.0
2018-Jan-25 01:57N 06°01' E 001°15'0 0.0
2018-Jan-25 01:18N 06°01' E 001°15'0 0.0
2018-Jan-25 00:57N 06°01' E 001°15'0 0.0
2018-Jan-25 00:30N 06°01' E 001°15'0 0.0
2018-Jan-24 23:57N 06°01' E 001°15'0 0.1
2018-Jan-24 23:29N 06°01' E 001°15'2 3.3
2018-Jan-24 23:00N 05°60' E 001°17'5 9.9
2018-Jan-24 22:30N 05°55' E 001°19'612.8
2018-Jan-24 22:00N 05°54' E 001°26'713.8
2018-Jan-24 21:30N 05°54' E 001°32'1213.8
2018-Jan-24 20:37N 05°54' E 001°45'414.0
2018-Jan-24 20:19N 05°54' E 001°49'414.1
2018-Jan-24 20:00N 05°54' E 001°53'93 3.6
2018-Jan-23 17:55N 06°19' E 003°23'6 0.4
2018-Jan-23 03:41N 06°14' E 003°25'213.4
2018-Jan-23 03:30N 06°12' E 003°26'713.9
2018-Jan-23 02:59N 06°05' E 003°29'714.0
2018-Jan-23 02:30N 05°59' E 003°31'714.1
2018-Jan-23 02:00N 05°52' E 003°33'814.0
2018-Jan-23 01:27N 05°45' E 003°36'713.9
2018-Jan-23 00:55N 05°38' E 003°38'613.8
2018-Jan-23 00:30N 05°32' E 003°40'713.7
2018-Jan-23 00:00N 05°26' E 003°43'  

Dump ship's entire track history